Time;durP1;ratioP1;P1;durP2;ratioP2;P2;SDS_P1;SDS_P2;PMS_P1;PMS_P2;Temp;Humidity;BMP_temperature;BMP_pressure;BME280_temperature;BME280_humidity;BME280_pressure;Samples;Min_cycle;Max_cycle;Signal;HPM_P1;HPM_P2
2022/05/11 00:01:49;;;;;;;7.80;6.53;;;;;;;21.78;58.21;101422.16;4994643;28;20050;-77
2022/05/11 00:04:17;;;;;;;7.30;6.20;;;;;;;21.78;58.32;101423.00;4993987;28;20058;-77
2022/05/11 00:06:45;;;;;;;8.82;6.88;;;;;;;21.78;58.23;101416.75;4992689;28;20046;-77
2022/05/11 00:09:13;;;;;;;7.78;6.13;;;;;;;21.78;58.20;101419.47;4994824;28;20046;-77
2022/05/11 00:11:42;;;;;;;7.20;6.20;;;;;;;21.77;58.35;101421.31;4994341;28;20053;-77
2022/05/11 00:14:12;;;;;;;6.97;6.25;;;;;;;21.77;58.10;101410.53;4993773;28;20050;-77
2022/05/11 00:16:40;;;;;;;6.68;5.90;;;;;;;21.77;58.16;101420.44;4993927;28;20042;-77
2022/05/11 00:19:08;;;;;;;6.97;6.28;;;;;;;21.76;58.36;101419.59;4993942;28;20046;-77
2022/05/11 00:21:36;;;;;;;7.60;6.75;;;;;;;21.76;58.24;101416.06;4994544;28;20049;-77
2022/05/11 00:24:04;;;;;;;8.60;6.55;;;;;;;21.77;58.28;101417.75;4994758;28;20061;-77
2022/05/11 00:26:31;;;;;;;6.57;5.88;;;;;;;21.76;58.18;101413.38;4993522;28;20043;-77
2022/05/11 00:28:59;;;;;;;7.57;6.22;;;;;;;21.75;58.04;101404.41;4993792;28;20047;-77
2022/05/11 00:31:26;;;;;;;7.60;6.70;;;;;;;21.76;58.20;101407.97;4994913;28;20046;-77
2022/05/11 00:33:55;;;;;;;8.45;6.72;;;;;;;21.76;58.19;101407.97;4995146;28;20054;-77
2022/05/11 00:36:22;;;;;;;7.03;6.32;;;;;;;21.74;58.21;101405.38;4994751;28;20046;-77
2022/05/11 00:38:50;;;;;;;7.70;6.85;;;;;;;21.75;58.17;101403.53;4994597;28;20482;-77
2022/05/11 00:41:18;;;;;;;7.80;7.00;;;;;;;21.75;58.09;101407.09;4994285;28;20509;-77
2022/05/11 00:44:01;;;;;;;7.88;6.35;;;;;;;21.75;58.19;101403.53;4994525;28;20051;-77
2022/05/11 00:46:44;;;;;;;6.82;6.22;;;;;;;21.76;58.26;101407.97;4995012;28;20047;-77
2022/05/11 00:49:48;;;;;;;10.93;6.38;;;;;;;21.73;58.15;101407.25;4994737;28;20057;-77
2022/05/11 00:52:20;;;;;;;7.38;6.60;;;;;;;21.73;58.10;101404.53;5001064;28;20069;-77
2022/05/11 00:55:04;;;;;;;6.82;6.22;;;;;;;21.74;57.88;101416.16;4998604;28;20057;-77
2022/05/11 00:57:40;;;;;;;7.82;6.38;;;;;;;21.75;58.10;101414.31;4997098;28;20046;-77
2022/05/11 01:00:12;;;;;;;7.05;6.15;;;;;;;21.75;58.09;101408.94;4997789;28;20053;-77
2022/05/11 01:02:44;;;;;;;7.57;6.50;;;;;;;21.73;58.04;101407.25;4998519;28;20042;-77
2022/05/11 01:05:11;;;;;;;7.45;6.75;;;;;;;21.73;58.13;101401.84;4998120;28;20328;-77
2022/05/11 01:07:39;;;;;;;7.90;6.50;;;;;;;21.73;58.22;101406.38;4997007;28;20043;-77
2022/05/11 01:10:08;;;;;;;7.07;6.30;;;;;;;21.72;58.12;101402.84;4997377;28;20475;-77
2022/05/11 01:12:40;;;;;;;7.03;6.25;;;;;;;21.73;57.83;101404.53;4997847;28;20051;-77
2022/05/11 01:15:11;;;;;;;7.10;6.40;;;;;;;21.73;58.11;101409.06;4997535;28;20046;-77
2022/05/11 01:17:39;;;;;;;8.23;7.28;;;;;;;21.72;57.94;101402.84;4997441;28;20046;-77
2022/05/11 01:20:12;;;;;;;8.45;6.28;;;;;;;21.73;58.10;101398.31;4997099;28;20042;-77
2022/05/11 01:22:49;;;;;;;7.38;6.15;;;;;;;21.73;57.89;101407.25;4997055;28;20489;-77
2022/05/11 01:25:18;;;;;;;6.78;5.82;;;;;;;21.72;58.09;101410.94;4996279;28;20057;-77
2022/05/11 01:27:47;;;;;;;8.45;6.32;;;;;;;21.72;57.94;101408.22;4995994;28;20042;-77
2022/05/11 01:30:21;;;;;;;7.63;6.65;;;;;;;21.72;57.87;101413.63;4997544;28;20054;-77
2022/05/11 01:32:55;;;;;;;7.20;6.18;;;;;;;21.72;58.04;101402.00;4995535;28;20046;-77
2022/05/11 01:35:54;;;;;;;6.40;5.80;;;;;;;21.71;58.10;101411.91;4997075;28;20087;-77
2022/05/11 01:38:52;;;;;;;7.45;6.22;;;;;;;21.72;58.13;101412.78;4997631;28;20053;-77
2022/05/11 01:41:25;;;;;;;7.72;6.35;;;;;;;21.71;57.97;101402.97;4994393;28;20065;-77
2022/05/11 01:43:53;;;;;;;7.15;6.45;;;;;;;21.72;57.87;101407.38;4997456;28;20050;-77
2022/05/11 01:46:21;;;;;;;7.50;6.30;;;;;;;21.71;57.83;101409.22;5014514;28;20050;-77
2022/05/11 01:48:48;;;;;;;7.25;5.75;;;;;;;21.71;57.97;101402.97;5014556;28;20494;-77
2022/05/11 01:51:18;;;;;;;6.82;6.15;;;;;;;21.71;58.01;101400.25;5014520;28;20057;-77
2022/05/11 01:53:47;;;;;;;7.82;7.03;;;;;;;21.70;57.90;101404.81;5014202;28;20077;-77
2022/05/11 01:56:16;;;;;;;7.03;6.30;;;;;;;21.71;57.92;101405.66;5014299;28;20054;-77
2022/05/11 01:58:44;;;;;;;7.13;6.50;;;;;;;21.71;57.86;101411.91;5014352;28;20049;-77
2022/05/11 02:01:15;;;;;;;6.18;5.57;;;;;;;21.70;57.81;101404.81;4996829;28;20045;-77
2022/05/11 02:03:43;;;;;;;6.70;5.97;;;;;;;21.70;57.89;101410.19;5014399;28;20054;-77
2022/05/11 02:08:56;;;;;;;6.55;5.82;;;;;;;21.70;58.05;101407.50;5013931;28;20061;-77
2022/05/11 02:11:24;;;;;;;7.07;6.38;;;;;;;21.69;58.05;101408.50;5013138;28;20049;-77
2022/05/11 02:13:51;;;;;;;7.07;6.03;;;;;;;21.70;57.93;101410.19;5006291;28;20066;-77
2022/05/11 02:16:18;;;;;;;7.68;6.70;;;;;;;21.69;58.04;101405.78;4994605;28;20054;-77
2022/05/11 02:18:46;;;;;;;7.82;6.50;;;;;;;21.69;57.87;101405.78;4997368;28;20050;-77
2022/05/11 02:21:13;;;;;;;7.97;6.50;;;;;;;21.69;57.86;101410.34;4996622;28;20038;-77
2022/05/11 02:23:41;;;;;;;7.70;6.43;;;;;;;21.69;57.90;101408.50;4996507;28;20054;-77
2022/05/11 02:26:11;;;;;;;7.15;6.38;;;;;;;21.69;57.94;101407.63;4996577;28;20046;-77
2022/05/11 02:28:39;;;;;;;6.65;6.03;;;;;;;21.68;57.91;101409.50;4996658;28;20053;-77
2022/05/11 02:31:07;;;;;;;7.32;6.40;;;;;;;21.69;57.82;101416.56;4995318;28;20046;-77
2022/05/11 02:33:35;;;;;;;7.80;6.72;;;;;;;21.69;57.95;101413.03;4995744;28;20046;-77
2022/05/11 02:36:02;;;;;;;6.97;6.28;;;;;;;21.69;57.73;101416.56;4995624;28;20051;-77
2022/05/11 02:38:33;;;;;;;9.07;6.43;;;;;;;21.67;57.85;101407.78;4996337;28;20057;-77
2022/05/11 02:41:02;;;;;;;8.18;6.68;;;;;;;21.68;57.95;101406.78;4996454;28;20046;-77
2022/05/11 02:43:29;;;;;;;7.03;6.30;;;;;;;21.69;57.92;101407.63;4996473;28;20042;-77
2022/05/11 02:45:56;;;;;;;7.60;6.82;;;;;;;21.69;57.83;101415.72;4994431;28;20057;-77
2022/05/11 02:48:25;;;;;;;7.60;6.53;;;;;;;21.67;57.87;101412.28;4996279;28;20069;-77
2022/05/11 02:50:55;;;;;;;7.55;6.75;;;;;;;21.67;57.91;101415.88;4995945;28;20501;-77
2022/05/11 02:53:25;;;;;;;7.40;6.70;;;;;;;21.68;57.93;101417.56;4995257;28;20050;-77
2022/05/11 02:55:54;;;;;;;7.80;7.03;;;;;;;21.68;57.86;101409.50;4994324;28;20509;-77
2022/05/11 02:58:24;;;;;;;6.68;5.97;;;;;;;21.68;57.85;101412.19;4993923;28;20065;-77
2022/05/11 03:00:53;;;;;;;7.63;6.15;;;;;;;21.68;57.82;101416.72;4995134;28;20046;-77
2022/05/11 03:03:21;;;;;;;6.85;6.18;;;;;;;21.68;57.93;101422.09;4994880;28;20107;-77
2022/05/11 03:05:52;;;;;;;7.10;6.38;;;;;;;21.68;57.83;101414.03;4995539;28;20051;-77
2022/05/11 03:08:20;;;;;;;8.32;6.40;;;;;;;21.66;57.84;101414.13;4996638;28;20402;-77
2022/05/11 03:10:48;;;;;;;6.95;6.32;;;;;;;21.68;57.93;101414.03;4995234;28;20050;-77
2022/05/11 03:13:17;;;;;;;7.97;6.55;;;;;;;21.67;57.91;101409.59;5009517;28;20047;-76
2022/05/11 03:15:44;;;;;;;7.22;6.53;;;;;;;21.66;57.80;101413.28;4994849;28;20050;-77
2022/05/11 03:18:12;;;;;;;7.63;6.82;;;;;;;21.66;57.88;101422.22;4995201;28;20057;-76
2022/05/11 03:20:40;;;;;;;7.93;6.93;;;;;;;21.67;57.95;101420.38;4995013;28;20050;-77
2022/05/11 03:23:07;;;;;;;7.03;6.40;;;;;;;21.65;57.86;101417.81;4993578;28;20050;-76
2022/05/11 03:25:35;;;;;;;7.60;6.85;;;;;;;21.66;57.86;101419.53;4995598;28;20054;-77
2022/05/11 03:28:03;;;;;;;8.15;7.03;;;;;;;21.65;57.96;101417.81;4995655;28;20050;-77
2022/05/11 03:30:30;;;;;;;7.95;6.90;;;;;;;21.66;57.85;101424.91;4995486;28;20046;-80
2022/05/11 03:35:43;;;;;;;7.13;6.53;;;;;;;21.66;58.19;101416.84;4995265;28;20043;-77
2022/05/11 03:38:11;;;;;;;7.93;7.07;;;;;;;21.65;57.81;101425.06;4995238;28;20390;-77
2022/05/11 03:40:38;;;;;;;8.10;7.05;;;;;;;21.68;57.86;101432.88;4994181;28;20057;-77
2022/05/11 03:43:06;;;;;;;7.22;6.53;;;;;;;21.66;57.99;101424.91;4994912;28;20474;-76
2022/05/11 03:45:34;;;;;;;7.93;7.22;;;;;;;21.67;58.12;101433.84;4995292;28;20046;-77
2022/05/11 03:48:02;;;;;;;8.27;7.47;;;;;;;21.66;58.02;101430.31;4995462;28;20046;-77
2022/05/11 03:50:29;;;;;;;8.30;7.35;;;;;;;21.67;58.07;101433.84;4994816;28;20057;-77
2022/05/11 03:52:57;;;;;;;8.75;6.93;;;;;;;21.65;57.94;101428.59;4994464;28;20047;-77
2022/05/11 03:55:26;;;;;;;7.35;6.65;;;;;;;21.66;57.99;101430.31;4994690;28;20050;-77
2022/05/11 03:57:54;;;;;;;8.23;7.35;;;;;;;21.65;57.94;101427.75;4992996;28;20054;-77
2022/05/11 04:00:23;;;;;;;7.30;6.57;;;;;;;21.66;57.88;101435.69;4995317;28;20046;-77
2022/05/11 04:02:53;;;;;;;7.85;7.15;;;;;;;21.65;57.87;101425.91;4994172;28;20046;-77
2022/05/11 04:05:21;;;;;;;7.45;6.75;;;;;;;21.65;58.07;101428.59;4993756;28;20046;-77
2022/05/11 04:07:48;;;;;;;7.30;6.60;;;;;;;21.65;58.16;101427.75;4996743;28;20050;-77
2022/05/11 04:10:17;;;;;;;7.57;6.88;;;;;;;21.65;58.07;101434.00;4996207;28;20054;-77
2022/05/11 04:12:45;;;;;;;8.32;7.18;;;;;;;21.64;57.93;101434.13;4995726;28;20113;-77
2022/05/11 04:15:14;;;;;;;7.68;6.88;;;;;;;21.64;57.89;101440.38;4994323;28;20083;-77
2022/05/11 04:17:43;;;;;;;7.28;6.57;;;;;;;21.65;58.06;101439.38;4995537;28;20485;-77
2022/05/11 04:20:14;;;;;;;10.00;7.30;;;;;;;21.65;58.08;101436.69;4994902;28;20046;-77
2022/05/11 04:22:42;;;;;;;6.97;6.28;;;;;;;21.65;58.07;101439.38;4994808;28;20053;-77
2022/05/11 04:25:14;;;;;;;7.28;6.50;;;;;;;21.65;58.06;101438.53;4996473;28;20061;-77
2022/05/11 04:27:45;;;;;;;7.90;6.68;;;;;;;21.64;57.98;101445.78;4997505;28;20053;-77
2022/05/11 04:30:14;;;;;;;7.78;6.75;;;;;;;21.64;57.96;101448.47;4999254;28;20054;-77
2022/05/11 04:32:41;;;;;;;7.18;6.57;;;;;;;21.64;57.99;101444.91;4998594;28;20466;-77
2022/05/11 04:35:09;;;;;;;7.22;6.53;;;;;;;21.64;58.00;101448.47;4998443;28;20161;-77
2022/05/11 04:37:37;;;;;;;7.82;7.13;;;;;;;21.63;57.92;101462.94;4998861;28;20046;-77
2022/05/11 04:40:05;;;;;;;7.50;6.70;;;;;;;21.63;58.00;101457.53;4998876;28;20046;-77
2022/05/11 04:42:35;;;;;;;8.02;7.22;;;;;;;21.64;57.90;101458.38;4997451;28;20050;-77
2022/05/11 04:45:02;;;;;;;8.82;7.07;;;;;;;21.64;57.93;101463.78;4998428;28;20046;-77
2022/05/11 04:47:30;;;;;;;7.55;6.82;;;;;;;21.63;57.96;101468.31;5012865;28;20054;-77
2022/05/11 04:49:58;;;;;;;9.77;7.47;;;;;;;21.63;58.00;101470.13;4997838;28;20043;-77
2022/05/11 04:52:25;;;;;;;7.40;6.55;;;;;;;21.63;57.81;101473.72;4998369;28;20042;-77
2022/05/11 04:54:52;;;;;;;8.00;6.78;;;;;;;21.63;57.78;101467.44;4998385;28;20046;-77
2022/05/11 04:57:20;;;;;;;8.57;6.93;;;;;;;21.63;57.97;101472.81;4998209;28;20050;-77
2022/05/11 04:59:49;;;;;;;7.28;6.03;;;;;;;21.63;57.93;101475.53;4997520;28;20497;-77
2022/05/11 05:02:19;;;;;;;8.05;7.25;;;;;;;21.63;57.75;101475.53;4998651;28;20062;-78
2022/05/11 05:04:48;;;;;;;7.97;7.18;;;;;;;21.62;57.93;101477.38;4997377;28;20054;-77
2022/05/11 05:07:16;;;;;;;7.85;6.88;;;;;;;21.62;57.82;101474.66;4996950;28;20050;-78
2022/05/11 05:09:44;;;;;;;7.32;6.55;;;;;;;21.62;57.86;101482.75;4997350;28;20050;-77
2022/05/11 05:12:12;;;;;;;7.55;6.78;;;;;;;21.63;57.78;101489.00;4998162;28;20046;-77
2022/05/11 05:14:42;;;;;;;8.02;6.88;;;;;;;21.62;57.84;101485.44;4998050;28;20046;-77
2022/05/11 05:17:16;;;;;;;7.88;7.10;;;;;;;21.62;57.88;101488.13;4998037;28;20053;-77
2022/05/11 05:19:44;;;;;;;7.55;6.85;;;;;;;21.62;57.85;101487.28;4996695;28;20054;-77
2022/05/11 05:22:12;;;;;;;6.97;6.20;;;;;;;21.62;58.02;101498.06;4997595;28;20046;-77
2022/05/11 05:24:41;;;;;;;7.05;6.13;;;;;;;21.63;57.71;101499.78;4997303;28;20051;-77
2022/05/11 05:27:11;;;;;;;7.95;6.85;;;;;;;21.62;57.80;101498.91;4997543;28;20046;-78
2022/05/11 05:32:25;;;;;;;7.03;6.30;;;;;;;21.62;57.69;101498.06;4996930;28;20478;-77
2022/05/11 05:34:53;;;;;;;7.60;6.90;;;;;;;21.62;57.74;101492.69;4996467;28;20046;-77
2022/05/11 05:37:21;;;;;;;7.30;6.60;;;;;;;21.61;57.94;101499.91;4996873;28;20054;-77
2022/05/11 05:39:48;;;;;;;6.75;6.13;;;;;;;21.62;57.84;101504.31;4997338;28;20057;-77
2022/05/11 05:42:17;;;;;;;7.57;6.88;;;;;;;21.61;57.91;101501.75;4997589;28;20046;-77
2022/05/11 05:44:45;;;;;;;7.95;6.53;;;;;;;21.61;57.42;101508.00;4997132;28;20513;-77
2022/05/11 05:47:13;;;;;;;7.47;6.78;;;;;;;21.60;57.72;101509.00;4997301;28;20050;-77
2022/05/11 05:49:41;;;;;;;7.47;6.75;;;;;;;21.62;57.71;101506.16;4997450;28;20047;-77
2022/05/11 05:52:17;;;;;;;8.95;7.00;;;;;;;21.61;57.71;101521.47;4996839;28;20046;-77
2022/05/11 05:54:45;;;;;;;7.65;6.47;;;;;;;21.63;57.71;101521.31;4995971;28;20050;-77
2022/05/11 05:57:14;;;;;;;8.18;7.25;;;;;;;21.61;57.63;101516.09;4996800;28;20053;-77
2022/05/11 05:59:41;;;;;;;9.40;7.68;;;;;;;21.61;57.85;101518.78;4996962;28;20050;-77
2022/05/11 06:02:13;;;;;;;7.47;6.45;;;;;;;21.61;57.84;101521.47;4994802;28;20058;-77
2022/05/11 06:04:45;;;;;;;8.13;6.72;;;;;;;21.62;57.85;101525.00;4996311;28;20050;-77
2022/05/11 06:07:13;;;;;;;7.53;6.82;;;;;;;21.62;57.79;101514.25;4996973;28;20046;-77
2022/05/11 06:09:41;;;;;;;7.82;6.70;;;;;;;21.60;57.76;101517.06;4997354;28;20153;-77
2022/05/11 06:12:12;;;;;;;7.90;7.03;;;;;;;21.60;57.74;101519.78;4996897;28;20463;-77
2022/05/11 06:14:39;;;;;;;7.47;6.43;;;;;;;21.61;57.52;101529.56;4997785;28;20485;-77
2022/05/11 06:17:23;;;;;;;6.95;6.22;;;;;;;21.61;57.74;101528.69;4997019;28;20046;-77
2022/05/11 06:19:52;;;;;;;9.65;7.00;;;;;;;21.61;57.54;101523.31;4997208;28;20467;-78
2022/05/11 06:22:21;;;;;;;7.35;6.68;;;;;;;21.62;57.72;101535.78;4995639;28;20050;-77
2022/05/11 06:24:48;;;;;;;8.23;7.47;;;;;;;21.61;57.50;101534.09;4996740;28;20054;-77
2022/05/11 06:27:21;;;;;;;8.18;7.43;;;;;;;21.61;57.50;101534.09;4996255;28;20051;-77
2022/05/11 06:29:53;;;;;;;8.23;7.30;;;;;;;21.61;57.57;101534.09;4995536;28;20046;-77
2022/05/11 06:32:22;;;;;;;8.30;7.50;;;;;;;21.60;57.57;101527.84;4995431;28;20050;-77
2022/05/11 06:34:52;;;;;;;9.63;8.27;;;;;;;21.60;57.40;101533.25;4994144;28;20109;-78
2022/05/11 06:37:21;;;;;;;10.32;8.65;;;;;;;21.59;57.61;101539.63;4995456;28;20057;-89
2022/05/11 06:39:48;;;;;;;14.75;8.80;;;;;;;21.59;57.29;101539.63;4995751;28;20042;-85
2022/05/11 06:42:17;;;;;;;9.85;8.52;;;;;;;21.58;57.51;101540.59;4995324;28;20058;-87
2022/05/11 06:44:44;;;;;;;10.05;9.07;;;;;;;21.57;56.82;101541.56;4996139;28;20042;-87
2022/05/11 06:47:12;;;;;;;12.57;8.95;;;;;;;21.57;57.25;101555.03;4992768;28;20050;-81
2022/05/11 06:49:39;;;;;;;8.98;8.13;;;;;;;21.57;57.22;101549.66;4995610;28;20042;-82
2022/05/11 06:52:06;;;;;;;9.07;8.02;;;;;;;21.59;57.44;101542.31;4995147;28;20505;-84
2022/05/11 07:00:08;;;;;;;8.82;7.15;;;;;;;21.60;57.60;101554.78;4980432;28;20061;-82
2022/05/11 07:02:37;;;;;;;10.38;7.72;;;;;;;21.61;57.51;101556.50;4995218;28;20046;-82
2022/05/11 07:05:07;;;;;;;9.48;8.48;;;;;;;21.61;57.18;101551.09;4994538;28;20042;-83
2022/05/11 07:07:35;;;;;;;8.95;8.05;;;;;;;21.61;57.26;101559.19;4994808;28;20061;-93
2022/05/11 07:10:03;;;;;;;9.50;8.13;;;;;;;21.63;57.41;101553.66;4993086;28;20501;-83
2022/05/11 07:12:33;;;;;;;12.77;8.15;;;;;;;21.64;58.09;101550.84;4996125;28;20050;-92
2022/05/11 07:15:05;;;;;;;9.93;8.88;;;;;;;21.67;57.87;101552.41;4996834;28;20043;-86
2022/05/11 07:17:38;;;;;;;10.98;7.85;;;;;;;21.69;57.96;101550.47;4996010;28;20054;-84
2022/05/11 07:20:12;;;;;;;12.63;8.45;;;;;;;21.70;58.19;101552.16;4993908;28;20061;-83
2022/05/11 07:22:40;;;;;;;12.15;8.82;;;;;;;21.72;58.13;101552.91;4994703;28;20054;-87
2022/05/11 07:25:09;;;;;;;11.18;8.52;;;;;;;21.73;57.89;101558.16;4995615;28;20114;-85
2022/05/11 07:27:37;;;;;;;10.85;8.60;;;;;;;21.75;57.83;101551.78;4995311;28;20050;-81
2022/05/11 07:30:07;;;;;;;8.90;7.28;;;;;;;21.76;57.58;101553.50;4995244;28;20038;-79
2022/05/11 07:32:35;;;;;;;11.00;7.75;;;;;;;21.79;57.64;101553.22;4993529;28;20058;-80
2022/05/11 07:35:03;;;;;;;11.50;8.43;;;;;;;21.81;57.31;101559.34;4993996;28;20134;-81
2022/05/11 07:37:31;;;;;;;12.38;8.95;;;;;;;21.82;57.53;101552.97;4995724;28;20044;-82
2022/05/11 07:39:59;;;;;;;12.10;7.85;;;;;;;21.83;57.42;101550.13;4996553;28;20061;-80
2022/05/11 07:42:27;;;;;;;8.68;7.78;;;;;;;21.84;57.67;101559.09;4995048;28;20050;-81
2022/05/11 07:44:55;;;;;;;10.40;7.90;;;;;;;21.86;57.71;101557.13;4978755;28;20050;-88
2022/05/11 07:47:23;;;;;;;13.75;7.47;;;;;;;21.87;57.64;101550.72;4995620;28;20061;-77
2022/05/11 07:49:50;;;;;;;11.25;7.00;;;;;;;21.88;57.75;101556.00;4995455;28;20058;-77
2022/05/11 07:52:18;;;;;;;10.65;7.32;;;;;;;21.89;57.79;101557.72;4994939;28;20042;-83
2022/05/11 07:54:45;;;;;;;8.10;7.30;;;;;;;21.91;57.99;101549.47;4994697;28;20049;-89
2022/05/11 07:59:59;;;;;;;8.50;7.35;;;;;;;21.93;57.72;101555.59;4995067;28;20050;-86
2022/05/11 08:02:32;;;;;;;8.60;7.70;;;;;;;21.94;58.02;101560.84;5001368;28;20069;-80
2022/05/11 08:05:09;;;;;;;11.02;7.82;;;;;;;21.95;57.98;101551.78;4994969;28;20057;-84
2022/05/11 08:07:40;;;;;;;10.60;7.88;;;;;;;21.96;58.04;101558.91;4994981;28;20379;-84
2022/05/11 08:10:12;;;;;;;10.57;7.63;;;;;;;21.98;58.06;101561.44;4994706;28;20054;-87
2022/05/11 08:12:40;;;;;;;8.07;7.28;;;;;;;22.01;58.05;101558.50;4995463;28;20287;-82
2022/05/11 08:15:09;;;;;;;10.00;7.00;;;;;;;22.01;57.96;101558.50;4993832;28;20057;-84
2022/05/11 08:17:37;;;;;;;8.15;7.05;;;;;;;22.02;58.35;101552.13;4992777;28;20061;-82
2022/05/11 08:20:14;;;;;;;10.50;7.30;;;;;;;22.04;58.08;101555.53;4994532;28;20054;-87
2022/05/11 08:22:44;;;;;;;13.65;8.48;;;;;;;22.05;58.30;101554.56;4994594;28;20046;-80
2022/05/11 08:25:14;;;;;;;8.95;7.75;;;;;;;22.05;58.13;101551.84;4993321;28;20050;-82
2022/05/11 08:27:42;;;;;;;9.93;8.00;;;;;;;22.07;57.89;101555.25;4993825;28;20050;-82
2022/05/11 08:36:13;;;;;;;10.20;8.05;;;;;;;22.10;58.05;101562.25;4993707;28;20134;-83
2022/05/11 08:38:44;;;;;;;8.73;7.65;;;;;;;22.10;58.29;101552.31;4994980;28;20051;-82
2022/05/11 08:41:49;;;;;;;11.32;8.50;;;;;;;22.12;58.08;101560.25;4994892;28;20051;-81
2022/05/11 08:44:18;;;;;;;10.85;8.07;;;;;;;22.13;58.02;101556.63;4994347;28;20038;-81
2022/05/11 08:47:08;;;;;;;8.75;7.85;;;;;;;22.12;58.31;101555.75;4994297;28;20046;-84
2022/05/11 08:50:04;;;;;;;10.88;8.55;;;;;;;22.15;58.19;101565.41;4993728;28;20058;-82
2022/05/11 08:52:55;;;;;;;16.83;8.60;;;;;;;22.14;57.93;101559.19;5012255;28;20066;-83
2022/05/11 08:55:41;;;;;;;8.68;7.43;;;;;;;22.15;58.09;101560.88;4954120;28;20055;-86
2022/05/11 08:58:34;;;;;;;9.55;7.75;;;;;;;22.16;57.88;101562.63;4953265;29;20063;-81
2022/05/11 09:01:03;;;;;;;11.00;8.15;;;;;;;22.16;59.55;101554.53;4950843;29;20079;-81
2022/05/11 09:03:35;;;;;;;7.65;6.88;;;;;;;22.16;58.70;101561.72;4938595;29;20063;-85
2022/05/11 09:06:07;;;;;;;10.70;7.30;;;;;;;22.17;60.89;101555.38;4933805;29;20067;-90
2022/05/11 09:08:37;;;;;;;9.80;8.05;;;;;;;22.16;60.49;101551.81;4937250;29;20278;-82
2022/05/11 09:11:06;;;;;;;9.07;8.18;;;;;;;22.16;61.53;101554.53;4937609;29;20066;-81
2022/05/11 09:13:37;;;;;;;9.27;8.32;;;;;;;22.16;60.98;101559.03;4938155;29;20517;-84
2022/05/11 09:16:27;;;;;;;15.20;8.43;;;;;;;22.16;60.92;101556.34;4940519;29;20063;-85
2022/05/11 09:18:56;;;;;;;8.63;7.82;;;;;;;22.16;62.07;101562.63;4937344;29;20537;-80
2022/05/11 09:21:29;;;;;;;9.02;7.53;;;;;;;22.16;62.58;101559.03;4936482;29;20052;-83
2022/05/11 09:24:18;;;;;;;9.60;8.45;;;;;;;22.16;63.38;101562.63;4936839;29;20099;-85
2022/05/11 09:26:59;;;;;;;10.75;8.77;;;;;;;22.15;63.67;101563.56;4938999;29;20512;-84
2022/05/11 09:29:37;;;;;;;14.52;8.20;;;;;;;22.16;63.61;101562.63;4938707;29;20456;-80
2022/05/11 09:32:31;;;;;;;9.05;8.25;;;;;;;22.16;63.79;101556.34;4949184;28;20123;-80
2022/05/11 09:35:24;;;;;;;9.60;8.48;;;;;;;22.15;62.84;101558.19;4978442;28;20047;-81
2022/05/11 09:38:05;;;;;;;12.18;8.23;;;;;;;22.15;62.40;101560.03;5016121;28;20057;-80
2022/05/11 09:40:51;;;;;;;9.48;8.48;;;;;;;22.14;62.47;101559.19;5014860;28;20053;-80
2022/05/11 09:43:39;;;;;;;9.77;8.77;;;;;;;22.15;64.34;101557.34;5013492;28;20146;-84
2022/05/11 09:46:24;;;;;;;11.17;7.67;;;;;;;22.15;63.83;101552.78;4981426;28;20149;-82
2022/05/11 09:49:04;;;;;;;8.93;7.82;;;;;;;22.15;64.24;101547.41;5014629;28;20407;-80
2022/05/11 09:51:40;;;;;;;8.38;7.60;;;;;;;22.16;63.91;101556.34;5014939;28;20053;-80
2022/05/11 09:54:20;;;;;;;9.63;8.32;;;;;;;22.15;63.33;101552.78;5013449;28;20073;-83
2022/05/11 09:56:58;;;;;;;8.30;7.47;;;;;;;22.16;63.80;101559.03;4998178;28;20609;-85
2022/05/11 09:59:49;;;;;;;10.40;9.35;;;;;;;22.16;64.09;101551.81;5014589;28;20049;-82
2022/05/11 10:02:52;;;;;;;12.20;8.00;;;;;;;22.16;63.79;101548.25;5014159;28;20054;-85
2022/05/11 10:05:26;;;;;;;11.45;8.10;;;;;;;22.16;64.09;101545.53;5012740;28;20098;-78
2022/05/11 10:08:20;;;;;;;10.57;8.50;;;;;;;22.17;64.25;101547.28;5014818;28;20072;-80
2022/05/11 10:10:55;;;;;;;9.52;8.18;;;;;;;22.15;62.23;101550.09;4996908;28;20051;-83
2022/05/11 10:13:32;;;;;;;10.55;8.13;;;;;;;22.16;62.80;101541.03;5013535;28;20053;-86
2022/05/11 10:21:54;;;;;;;11.43;8.57;;;;;;;22.16;63.02;101532.94;4975418;28;20403;-83
2022/05/11 10:24:38;;;;;;;10.10;9.05;;;;;;;22.17;63.13;101529.25;4976405;28;20051;-91
2022/05/11 10:27:20;;;;;;;11.82;8.45;;;;;;;22.17;62.49;101534.66;4976291;28;20494;-85
2022/05/11 10:29:54;;;;;;;10.57;8.43;;;;;;;22.19;63.08;101529.09;4976567;28;20059;-84
2022/05/11 10:32:35;;;;;;;10.05;8.50;;;;;;;22.17;62.34;101534.66;4977721;28;20050;-91
2022/05/11 10:35:10;;;;;;;9.85;8.95;;;;;;;22.19;63.24;101526.41;4977757;28;20043;-84
2022/05/11 10:37:43;;;;;;;10.30;9.23;;;;;;;22.17;62.35;101521.16;4977694;28;20062;-85
2022/05/11 10:40:23;;;;;;;10.82;9.10;;;;;;;22.18;64.23;101525.56;4976275;28;20050;-81
2022/05/11 10:43:04;;;;;;;9.95;9.00;;;;;;;22.16;64.16;101516.75;4977201;28;20046;-82
2022/05/11 10:45:54;;;;;;;11.02;9.88;;;;;;;22.17;63.40;101513.06;4977874;28;20054;-81
2022/05/11 10:49:05;;;;;;;13.18;9.30;;;;;;;22.18;62.30;101519.31;4977334;28;20054;-83
2022/05/11 10:51:51;;;;;;;10.85;9.75;;;;;;;22.18;62.58;101512.06;4976362;28;20047;-81
2022/05/11 10:54:38;;;;;;;14.55;9.27;;;;;;;22.19;63.50;101512.94;4975556;28;20394;-81
2022/05/11 10:57:17;;;;;;;9.57;8.68;;;;;;;22.17;63.13;101510.38;4976061;28;20043;-86
2022/05/11 10:59:58;;;;;;;9.95;8.93;;;;;;;22.18;63.49;101506.69;4978424;28;20065;-84
2022/05/11 11:03:02;;;;;;;9.82;8.80;;;;;;;22.17;63.52;101496.88;4976638;28;20054;-86
2022/05/11 11:07:11;;;;;;;10.98;9.32;;;;;;;22.18;62.87;101500.44;4975479;28;20050;-85
2022/05/11 11:08:59;;;;;;;11.65;9.27;;;;;;;22.18;63.65;101498.59;4976510;28;20062;-85
2022/05/11 11:11:45;;;;;;;9.93;8.63;;;;;;;22.18;63.69;101498.59;4975699;28;20422;-84
2022/05/11 11:14:20;;;;;;;11.50;9.02;;;;;;;22.16;63.91;101497.88;4977057;28;20062;-85
2022/05/11 11:17:07;;;;;;;12.00;10.00;;;;;;;22.16;63.82;101491.63;4976502;28;20047;-86
2022/05/11 11:19:35;;;;;;;12.38;9.93;;;;;;;22.16;63.53;101491.63;4976191;28;20399;-86
2022/05/11 11:22:05;;;;;;;10.48;9.10;;;;;;;22.15;63.47;101493.47;4976086;28;20073;-86
2022/05/11 11:24:34;;;;;;;11.82;9.70;;;;;;;22.16;63.81;101481.72;4976267;28;20058;-85
2022/05/11 11:27:05;;;;;;;9.70;8.68;;;;;;;22.16;63.62;101481.72;4975251;28;20054;-86
2022/05/11 11:29:35;;;;;;;9.63;8.63;;;;;;;22.15;62.31;101477.28;4976124;28;20047;-85
2022/05/11 11:32:11;;;;;;;11.00;9.90;;;;;;;22.16;62.99;101479.00;4975753;28;20046;-85
2022/05/11 11:34:44;;;;;;;11.00;8.82;;;;;;;22.16;62.42;101473.63;4990749;28;20411;-85
2022/05/11 11:37:24;;;;;;;12.27;9.68;;;;;;;22.17;60.87;101469.06;4974859;28;20047;-86
2022/05/11 11:39:57;;;;;;;9.18;8.10;;;;;;;22.19;61.70;101469.78;4975943;28;20046;-86
2022/05/11 11:42:32;;;;;;;10.57;9.48;;;;;;;22.21;59.27;101460.56;4975800;28;20419;-85
2022/05/11 11:45:01;;;;;;;11.20;9.32;;;;;;;22.28;59.66;101466.28;4976219;28;20062;-84
2022/05/11 11:47:28;;;;;;;9.52;8.32;;;;;;;22.30;59.62;101466.13;4977821;28;20053;-85
2022/05/11 11:49:58;;;;;;;10.98;9.00;;;;;;;22.31;59.71;101451.66;4977033;28;20054;-85
2022/05/11 11:52:39;;;;;;;10.77;9.45;;;;;;;22.32;61.55;101458.75;4976395;28;20055;-85
2022/05/11 11:55:28;;;;;;;9.98;8.70;;;;;;;22.31;60.71;101460.59;4976758;28;20058;-85
2022/05/11 11:58:11;;;;;;;10.18;8.75;;;;;;;22.31;61.88;101455.19;4976915;28;20051;-85
2022/05/11 12:00:48;;;;;;;10.55;8.32;;;;;;;22.30;61.54;101453.50;4976119;28;20138;-86
2022/05/11 12:03:18;;;;;;;11.35;8.80;;;;;;;22.29;62.07;101451.81;4975124;28;20058;-86
2022/05/11 12:05:50;;;;;;;9.05;7.78;;;;;;;22.28;62.19;101455.50;4975891;28;20051;-84
2022/05/11 12:17:01;;;;;;;10.15;8.10;;;;;;;22.27;62.21;101447.53;4976913;28;20039;-87
2022/05/11 12:19:32;;;;;;;10.05;9.02;;;;;;;22.25;62.03;101436.88;4975377;28;20051;-92
2022/05/11 12:22:02;;;;;;;8.23;7.43;;;;;;;22.26;62.28;101437.72;4973735;28;20050;-90
2022/05/11 12:24:39;;;;;;;10.85;7.90;;;;;;;22.25;62.09;101433.34;4972992;28;20047;-85